Terminal Aerodrome Forecast
Issued by NWS

Current Version | Previous Version | Text Only | Print | Product List | Glossary On
Versions: 1 2 3 4 5 6 7 8 9 10 11 12 13 14 15 16 17 18 19 20
857
FTAK31 PAJN 031141
TAFASI
TAF
PASI 031141Z 0312/0412 24015G25KT 6SM -SHRA SCT015 OVC025
      TEMPO 0312/0316 24025G35KT 4SM SHRA BR BKN015 OVC020
     FM031900 27015KT P6SM -SHRA SCT025 OVC035 WS020/28030KT
     FM032200 23012KT P6SM VCSH BKN035 BKN050
     FM040000 25012KT 5SM -SHRASN BKN020 OVC030=

USA.gov is the U.S. government's official web portal to all federal, state and local government web resources and services.